createdAt,value
2023-02-19T00:04:14.268Z,613.77679
2023-02-19T00:19:16.562Z,467.38126
2023-02-19T00:34:18.815Z,383.88159
2023-02-19T00:49:21.092Z,240.7393
2023-02-19T01:04:23.416Z,135.55141
2023-02-19T01:19:25.753Z,36.86998
2023-02-19T01:34:28.002Z,3.25323
2023-02-19T01:49:30.453Z,0
2023-02-19T02:04:32.734Z,0
2023-02-19T02:19:35.061Z,0
2023-02-19T02:34:37.275Z,0
2023-02-19T02:49:39.495Z,0
2023-02-19T03:04:41.793Z,0
2023-02-19T03:19:44.076Z,0
2023-02-19T03:34:46.431Z,0
2023-02-19T03:49:49.215Z,0
2023-02-19T04:04:51.681Z,0
2023-02-19T04:19:53.888Z,0
2023-02-19T04:34:56.743Z,0
2023-02-19T04:49:59.114Z,0
2023-02-19T05:05:01.403Z,0
2023-02-19T05:20:03.883Z,0
2023-02-19T05:35:06.160Z,0
2023-02-19T05:50:08.436Z,0
2023-02-19T06:05:10.599Z,0
2023-02-19T06:20:12.832Z,0
2023-02-19T06:35:15.060Z,0
2023-02-19T06:50:17.300Z,0
2023-02-19T07:05:19.482Z,0
2023-02-19T07:20:21.869Z,0
2023-02-19T07:35:24.092Z,0
2023-02-19T07:50:26.478Z,0
2023-02-19T08:05:28.704Z,0
2023-02-19T08:20:30.889Z,0
2023-02-19T08:35:33.083Z,0
2023-02-19T08:50:35.479Z,0
2023-02-19T09:05:37.717Z,0
2023-02-19T09:20:39.946Z,0
2023-02-19T09:35:42.184Z,0
2023-02-19T09:50:44.435Z,0
2023-02-19T10:05:46.735Z,0
2023-02-19T10:20:48.951Z,0
2023-02-19T10:35:51.370Z,0
2023-02-19T10:50:53.568Z,0
2023-02-19T11:05:55.988Z,0
2023-02-19T11:20:58.231Z,0
2023-02-19T11:36:00.418Z,0
2023-02-19T11:51:02.625Z,0
2023-02-19T12:06:04.846Z,0
2023-02-19T12:21:07.122Z,0
2023-02-19T12:36:09.677Z,0
2023-02-19T12:51:12.125Z,0
2023-02-19T13:06:15.009Z,0
2023-02-19T13:21:17.543Z,0
2023-02-19T13:36:19.713Z,0
2023-02-19T13:51:21.966Z,0
2023-02-19T14:06:24.185Z,0
2023-02-19T14:21:26.411Z,0
2023-02-19T14:36:28.677Z,2.16882
2023-02-19T14:51:30.909Z,20.60381
2023-02-19T15:06:33.189Z,78.07761
2023-02-19T15:21:35.517Z,185.43433
2023-02-19T15:36:37.796Z,337.25189
2023-02-19T15:51:40.165Z,554.13416
2023-02-19T16:06:42.472Z,571.48474
2023-02-19T16:21:44.697Z,804.63318
2023-02-19T16:36:47.215Z,1714.45422
2023-02-19T16:51:49.618Z,2357.51001
2023-02-19T17:06:51.838Z,1566.97424
2023-02-19T17:21:54.060Z,1800.12268
2023-02-19T17:36:56.460Z,1956.27795
2023-02-19T17:51:58.734Z,2035.43994
2023-02-19T18:07:01.014Z,2136.29028
2023-02-19T18:22:04.650Z,2179.66675
2023-02-19T18:37:08.106Z,3003.81909
2023-02-19T18:52:10.375Z,3132.86426
2023-02-19T19:07:12.617Z,2913.81299
2023-02-19T19:22:14.798Z,3695.67358
2023-02-19T19:37:17.006Z,5114.0835
2023-02-19T19:52:19.233Z,4141.3667
2023-02-19T20:07:21.538Z,4467.77441
2023-02-19T20:22:23.787Z,4345.23584
2023-02-19T20:37:26.873Z,3323.72046
2023-02-19T20:52:29.243Z,3806.28345
2023-02-19T21:07:31.488Z,3363.84375
2023-02-19T21:22:33.720Z,2540.77563
2023-02-19T21:37:37.087Z,1929.1676
2023-02-19T21:52:39.338Z,1778.43445
2023-02-19T22:07:41.934Z,1669.99329
2023-02-19T22:22:44.386Z,1650.474
2023-02-19T22:37:46.907Z,1203.69653
2023-02-19T22:52:49.118Z,1010.67133
2023-02-19T23:07:51.372Z,826.32141
2023-02-19T23:22:53.655Z,617.03003
2023-02-19T23:37:56.012Z,468.46567
2023-02-19T23:52:58.350Z,367.61542
